Terminal Aerodrome Forecast
Issued by NWS Burlington, VT

Home | Current Version | Previous Version | Text Only | Print | Product List | Glossary On
Versions: 1 2 3 4 5 6 7 8 9 10 11 12 13 14 15 16 17 18 19 20 21
000
FTUS41 KBTV 260532
TAFBTV
TAF
KBTV 260532Z 2606/2706 27006KT P6SM OVC060
     FM261300 28007KT P6SM VCSH OVC040
     FM261700 31011G17KT P6SM OVC040
     FM270200 30009KT P6SM OVC050=

USA.gov is the U.S. government's official web portal to all federal, state and local government web resources and services.